Time;durP1;ratioP1;P1;durP2;ratioP2;P2;SDS_P1;SDS_P2;PMS_P1;PMS_P2;Temp;Humidity;BMP_temperature;BMP_pressure;BME280_temperature;BME280_humidity;BME280_pressure;Samples;Min_cycle;Max_cycle;Signal;HPM_P1;HPM_P2
2024/02/14 00:02:12;;;;;;;3.57;1.37;;;9.10;99.90;;;;;;5013585;28;20036;-54
2024/02/14 00:04:38;;;;;;;5.33;1.80;;;9.00;99.90;;;;;;5013814;28;20026;-53
2024/02/14 00:07:04;;;;;;;5.43;1.83;;;8.90;99.90;;;;;;5013584;28;20034;-51
2024/02/14 00:09:29;;;;;;;4.57;1.43;;;8.70;99.90;;;;;;5013353;28;20030;-53
2024/02/14 00:11:55;;;;;;;5.13;2.13;;;8.60;99.90;;;;;;5012736;28;20111;-51
2024/02/14 00:14:21;;;;;;;3.10;1.53;;;8.50;99.90;;;;;;5012317;28;20082;-49
2024/02/14 00:16:46;;;;;;;3.43;1.67;;;8.40;99.90;;;;;;5012087;28;20030;-50
2024/02/14 00:19:12;;;;;;;6.27;2.10;;;8.30;99.90;;;;;;5013131;28;20044;-51
2024/02/14 00:21:39;;;;;;;4.03;1.63;;;8.20;99.90;;;;;;5013377;28;20367;-50
2024/02/14 00:24:04;;;;;;;5.37;1.63;;;8.20;99.90;;;;;;5013410;28;20029;-51
2024/02/14 00:26:30;;;;;;;3.17;1.43;;;8.20;99.90;;;;;;5013703;28;20042;-49
2024/02/14 00:28:56;;;;;;;6.17;1.90;;;8.20;99.90;;;;;;5013217;28;20125;-52
2024/02/14 00:31:22;;;;;;;2.90;1.63;;;8.20;99.90;;;;;;5013274;28;20036;-53
2024/02/14 00:33:47;;;;;;;5.07;1.57;;;8.20;99.90;;;;;;5013988;28;20030;-53
2024/02/14 00:36:13;;;;;;;3.07;1.30;;;8.20;99.90;;;;;;5014031;28;20056;-54
2024/02/14 00:38:38;;;;;;;4.37;1.50;;;8.20;99.90;;;;;;5014227;28;20084;-54
2024/02/14 00:41:04;;;;;;;2.77;1.57;;;8.10;99.90;;;;;;5014722;28;20040;-52
2024/02/14 00:43:30;;;;;;;2.97;1.40;;;8.20;99.90;;;;;;5013774;28;20092;-55
2024/02/14 00:45:58;;;;;;;4.77;1.60;;;8.20;99.90;;;;;;5013896;28;20022;-55
2024/02/14 00:48:24;;;;;;;3.47;1.70;;;8.20;99.90;;;;;;5013583;28;20124;-54
2024/02/14 00:50:49;;;;;;;4.10;1.70;;;8.20;99.90;;;;;;5012542;28;20041;-54
2024/02/14 00:53:15;;;;;;;5.40;1.50;;;8.30;99.90;;;;;;5012825;28;20030;-53
2024/02/14 00:55:41;;;;;;;2.40;1.40;;;8.30;99.90;;;;;;5012843;28;20034;-53
2024/02/14 00:58:06;;;;;;;3.23;1.33;;;8.20;99.90;;;;;;5012639;28;20062;-50
2024/02/14 01:00:32;;;;;;;3.97;1.77;;;8.20;99.90;;;;;;5012754;28;20050;-52
2024/02/14 01:02:58;;;;;;;2.97;1.63;;;8.10;99.90;;;;;;5012617;28;20036;-52
2024/02/14 01:05:24;;;;;;;3.10;1.40;;;8.10;99.90;;;;;;5012566;28;20072;-54
2024/02/14 01:07:50;;;;;;;3.70;1.60;;;8.00;99.90;;;;;;5012557;28;20021;-50
2024/02/14 01:10:15;;;;;;;4.60;1.50;;;8.00;99.90;;;;;;5012301;28;20097;-49
2024/02/14 01:12:41;;;;;;;2.87;1.40;;;8.00;99.90;;;;;;5012541;28;20030;-49
2024/02/14 01:15:07;;;;;;;3.10;1.57;;;8.10;99.90;;;;;;5011585;28;20033;-52
2024/02/14 01:17:35;;;;;;;4.20;1.50;;;8.10;99.90;;;;;;5011417;28;20479;-53
2024/02/14 01:20:02;;;;;;;3.53;1.30;;;8.10;99.90;;;;;;5011057;28;20068;-53
2024/02/14 01:22:28;;;;;;;4.10;1.33;;;8.20;99.90;;;;;;5011189;28;20064;-51
2024/02/14 01:24:54;;;;;;;3.60;1.80;;;8.20;99.90;;;;;;5011754;28;20030;-53
2024/02/14 01:27:22;;;;;;;4.97;1.50;;;8.10;99.90;;;;;;5012513;28;20030;-53
2024/02/14 01:29:48;;;;;;;4.03;1.37;;;8.20;99.90;;;;;;5012036;28;20030;-55
2024/02/14 01:32:14;;;;;;;4.37;1.47;;;8.20;99.90;;;;;;5012390;28;20387;-53
2024/02/14 01:34:40;;;;;;;1.90;1.23;;;8.20;99.90;;;;;;5012306;28;20034;-53
2024/02/14 01:37:06;;;;;;;3.33;1.53;;;8.30;99.90;;;;;;5012256;28;20034;-52
2024/02/14 01:39:31;;;;;;;3.27;1.30;;;8.30;99.90;;;;;;5011956;28;20030;-56
2024/02/14 01:41:57;;;;;;;3.03;1.30;;;8.40;99.90;;;;;;5010731;28;20183;-50
2024/02/14 01:44:22;;;;;;;3.27;1.07;;;8.40;99.90;;;;;;5012046;28;20026;-52
2024/02/14 01:46:48;;;;;;;2.67;1.10;;;8.50;99.90;;;;;;5012232;28;20484;-55
2024/02/14 01:49:15;;;;;;;2.40;1.03;;;8.50;99.90;;;;;;5011907;28;20026;-55
2024/02/14 01:51:44;;;;;;;5.20;1.10;;;8.50;99.90;;;;;;5012227;28;20045;-53
2024/02/14 01:54:12;;;;;;;3.20;1.00;;;8.50;99.90;;;;;;5011942;28;20088;-53
2024/02/14 01:56:39;;;;;;;2.83;1.00;;;8.60;99.90;;;;;;5014876;28;20065;-54
2024/02/14 01:59:05;;;;;;;4.23;1.20;;;8.60;99.90;;;;;;5015913;28;20483;-50
2024/02/14 02:01:33;;;;;;;2.20;1.07;;;8.60;99.90;;;;;;5014657;28;20034;-55
2024/02/14 02:03:59;;;;;;;1.27;0.80;;;8.60;99.90;;;;;;5015943;28;20030;-50
2024/02/14 02:06:26;;;;;;;2.33;0.90;;;8.60;99.90;;;;;;5015874;28;20501;-53
2024/02/14 02:08:52;;;;;;;2.50;1.33;;;8.80;99.90;;;;;;5015728;28;20049;-51
2024/02/14 02:11:17;;;;;;;2.33;0.90;;;8.80;99.90;;;;;;5014925;28;20503;-53
2024/02/14 02:13:43;;;;;;;2.63;0.83;;;8.80;99.90;;;;;;5015838;28;20037;-51
2024/02/14 02:16:09;;;;;;;2.27;0.80;;;8.90;99.90;;;;;;5015881;28;20108;-54
2024/02/14 02:18:35;;;;;;;3.67;0.77;;;8.90;99.90;;;;;;5015369;28;20026;-54
2024/02/14 02:21:03;;;;;;;3.27;0.77;;;8.90;99.90;;;;;;5014263;28;20030;-54
2024/02/14 02:23:29;;;;;;;1.48;0.70;;;8.90;99.90;;;;;;5015672;28;20029;-52
2024/02/14 02:25:55;;;;;;;1.67;0.63;;;9.00;99.90;;;;;;5015721;28;20053;-54
2024/02/14 02:28:21;;;;;;;3.53;0.80;;;9.00;99.90;;;;;;5015465;28;20478;-50
2024/02/14 02:30:46;;;;;;;3.10;0.80;;;8.90;99.90;;;;;;5015410;28;20120;-51
2024/02/14 02:33:12;;;;;;;2.87;0.83;;;8.90;99.90;;;;;;5015296;28;20036;-53
2024/02/14 02:35:42;;;;;;;2.23;0.90;;;9.00;99.90;;;;;;5015357;28;20033;-51
2024/02/14 02:38:07;;;;;;;;;;;9.00;99.90;;;;;;5015625;28;20030;-51
2024/02/14 02:40:33;;;;;;;1.53;0.70;;;9.10;99.90;;;;;;5015242;28;19914;-51
2024/02/14 02:43:00;;;;;;;1.30;0.60;;;9.20;99.90;;;;;;5015210;28;20137;-51
2024/02/14 02:45:26;;;;;;;0.80;0.60;;;9.20;99.90;;;;;;5015214;28;20034;-53
2024/02/14 02:47:51;;;;;;;1.30;0.60;;;9.20;99.90;;;;;;5015097;28;20025;-51
2024/02/14 02:50:17;;;;;;;2.33;0.80;;;9.20;99.90;;;;;;5014958;28;20384;-49
2024/02/14 02:52:43;;;;;;;1.93;0.70;;;9.20;99.90;;;;;;5014996;28;20042;-54
2024/02/14 02:55:10;;;;;;;1.73;0.70;;;9.30;99.90;;;;;;5014910;28;20029;-50
2024/02/14 02:57:36;;;;;;;1.40;0.90;;;9.30;99.90;;;;;;5015176;28;20112;-50
2024/02/14 03:00:04;;;;;;;2.17;0.77;;;9.30;99.90;;;;;;5014909;28;20029;-51
2024/02/14 03:02:31;;;;;;;1.13;0.70;;;9.30;99.90;;;;;;5015184;28;20030;-51
2024/02/14 03:04:56;;;;;;;1.57;0.70;;;9.30;99.90;;;;;;5014949;28;20072;-51
2024/02/14 03:07:23;;;;;;;4.13;1.00;;;9.30;99.90;;;;;;5013969;28;20053;-53
2024/02/14 03:09:49;;;;;;;2.63;0.97;;;9.40;99.90;;;;;;5013535;28;20475;-51
2024/02/14 03:12:16;;;;;;;1.73;0.70;;;9.40;99.90;;;;;;5014834;28;20055;-52
2024/02/14 03:14:43;;;;;;;1.13;0.63;;;9.40;99.90;;;;;;5013484;28;20123;-51
2024/02/14 03:17:09;;;;;;;2.37;0.90;;;9.50;99.90;;;;;;5014651;28;20045;-51
2024/02/14 03:19:38;;;;;;;2.27;0.87;;;9.40;99.90;;;;;;5014505;28;20034;-53
2024/02/14 03:22:08;;;;;;;2.15;0.80;;;9.50;99.90;;;;;;5014436;28;20088;-51
2024/02/14 03:24:36;;;;;;;1.73;0.70;;;9.50;99.90;;;;;;5014615;28;20168;-51
2024/02/14 03:27:04;;;;;;;5.40;1.20;;;9.50;99.90;;;;;;5014484;28;20479;-50
2024/02/14 03:29:29;;;;;;;5.07;1.30;;;9.50;99.90;;;;;;5014099;28;20044;-51
2024/02/14 03:31:58;;;;;;;2.20;1.07;;;9.60;99.90;;;;;;5014488;28;20034;-50
2024/02/14 03:34:25;;;;;;;2.53;0.93;;;9.60;99.90;;;;;;5014452;28;20034;-52
2024/02/14 03:36:50;;;;;;;3.40;1.20;;;9.60;99.90;;;;;;5014423;28;20436;-51
2024/02/14 03:39:17;;;;;;;1.70;0.90;;;9.60;99.90;;;;;;5012455;28;20084;-49
2024/02/14 03:41:42;;;;;;;2.17;1.30;;;9.60;99.90;;;;;;5014062;28;20455;-52
2024/02/14 03:44:08;;;;;;;3.67;1.70;;;9.60;99.90;;;;;;5013928;28;20036;-50
2024/02/14 03:46:35;;;;;;;3.60;1.13;;;9.60;99.90;;;;;;5014035;28;20022;-49
2024/02/14 03:49:01;;;;;;;2.23;1.13;;;9.60;99.90;;;;;;5013886;28;20036;-49
2024/02/14 03:51:26;;;;;;;1.20;0.80;;;9.60;99.90;;;;;;5013871;28;20030;-51
2024/02/14 03:53:52;;;;;;;2.53;1.20;;;9.50;99.90;;;;;;5013946;28;20580;-50
2024/02/14 03:56:18;;;;;;;3.60;1.10;;;9.60;99.90;;;;;;5013932;28;20045;-50
2024/02/14 03:58:43;;;;;;;3.67;1.20;;;9.60;99.90;;;;;;5013698;28;20048;-50
2024/02/14 04:01:09;;;;;;;3.20;1.10;;;9.60;99.90;;;;;;5013652;28;20034;-50
2024/02/14 04:03:35;;;;;;;3.17;1.00;;;9.60;99.90;;;;;;5011131;28;20034;-50
2024/02/14 04:06:01;;;;;;;2.10;1.17;;;9.60;99.90;;;;;;5012055;28;20096;-49
2024/02/14 04:08:26;;;;;;;2.77;1.40;;;9.60;99.90;;;;;;5012546;28;20038;-50
2024/02/14 04:10:54;;;;;;;4.57;1.30;;;9.60;99.90;;;;;;5013472;28;20025;-52
2024/02/14 04:13:20;;;;;;;3.20;1.43;;;9.50;99.90;;;;;;5012833;28;20026;-49
2024/02/14 04:15:46;;;;;;;2.97;1.30;;;9.60;99.90;;;;;;5013304;28;20030;-50
2024/02/14 04:18:14;;;;;;;5.97;1.83;;;9.60;99.90;;;;;;5013249;28;20464;-50
2024/02/14 04:20:41;;;;;;;4.43;1.40;;;9.70;99.90;;;;;;5013292;28;20064;-53
2024/02/14 04:23:07;;;;;;;4.27;1.80;;;9.70;99.90;;;;;;5016138;28;20036;-50
2024/02/14 04:25:35;;;;;;;3.13;1.60;;;9.80;99.90;;;;;;5020069;28;20038;-52
2024/02/14 04:28:02;;;;;;;3.00;1.53;;;9.70;99.90;;;;;;5030633;28;20433;-51
2024/02/14 04:30:27;;;;;;;3.63;2.13;;;9.70;99.90;;;;;;5020116;28;20443;-51
2024/02/14 04:32:53;;;;;;;3.87;1.70;;;9.80;99.90;;;;;;5019554;28;20087;-54
2024/02/14 04:35:20;;;;;;;3.37;1.60;;;9.90;99.90;;;;;;5029478;28;20120;-54
2024/02/14 04:37:49;;;;;;;4.80;1.30;;;9.80;99.90;;;;;;5031251;28;20343;-51
2024/02/14 04:40:15;;;;;;;5.75;1.92;;;9.80;99.90;;;;;;5021126;28;20033;-50
2024/02/14 04:42:43;;;;;;;3.10;1.40;;;9.90;99.90;;;;;;5024065;28;20379;-54
2024/02/14 04:45:09;;;;;;;4.35;1.45;;;9.80;99.90;;;;;;5018378;28;20104;-50
2024/02/14 04:47:35;;;;;;;6.80;1.73;;;9.80;99.90;;;;;;5030864;28;20502;-54
2024/02/14 04:50:03;;;;;;;3.93;1.97;;;9.90;99.90;;;;;;5030335;28;20017;-52
2024/02/14 04:52:29;;;;;;;3.17;1.60;;;9.90;99.90;;;;;;5030864;28;20548;-53
2024/02/14 04:54:56;;;;;;;3.90;2.20;;;9.90;99.90;;;;;;5030300;28;20025;-53
2024/02/14 04:57:22;;;;;;;3.47;1.70;;;9.90;99.90;;;;;;5020690;28;20061;-51
2024/02/14 04:59:47;;;;;;;5.37;1.70;;;9.90;99.90;;;;;;5015980;28;20056;-54
2024/02/14 05:02:13;;;;;;;9.33;2.90;;;9.90;99.90;;;;;;5029976;28;20038;-51
2024/02/14 05:04:39;;;;;;;3.80;2.27;;;10.00;99.90;;;;;;5019380;28;20490;-50
2024/02/14 05:07:04;;;;;;;3.60;1.60;;;9.90;99.90;;;;;;5018918;28;20033;-52
2024/02/14 05:09:30;;;;;;;4.57;1.97;;;10.00;99.90;;;;;;5030326;28;20033;-51
2024/02/14 05:11:56;;;;;;;3.70;1.90;;;10.00;99.90;;;;;;5030505;28;20025;-50
2024/02/14 05:14:22;;;;;;;5.93;2.03;;;10.00;99.90;;;;;;5030296;28;20440;-50
2024/02/14 05:16:47;;;;;;;4.57;1.60;;;10.00;99.90;;;;;;5030385;28;20033;-52
2024/02/14 05:19:13;;;;;;;3.57;1.83;;;10.00;99.90;;;;;;5021934;28;20056;-51
2024/02/14 05:21:39;;;;;;;6.50;2.00;;;10.00;99.90;;;;;;5026423;28;20474;-52
2024/02/14 05:24:05;;;;;;;7.03;2.30;;;10.00;99.90;;;;;;5026183;28;20343;-52
2024/02/14 05:26:31;;;;;;;5.47;3.07;;;9.90;99.90;;;;;;5030163;28;20053;-53
2024/02/14 05:28:57;;;;;;;7.97;2.80;;;9.90;99.90;;;;;;5022006;28;20063;-50
2024/02/14 05:31:22;;;;;;;4.07;2.03;;;9.90;99.90;;;;;;5019573;28;20088;-50
2024/02/14 05:33:48;;;;;;;6.97;2.97;;;9.90;99.90;;;;;;5018590;28;20022;-50
2024/02/14 05:36:13;;;;;;;4.37;1.87;;;9.90;99.90;;;;;;5025796;28;20026;-51
2024/02/14 05:38:39;;;;;;;6.03;2.40;;;9.80;99.90;;;;;;5030014;28;20087;-48
2024/02/14 05:41:07;;;;;;;4.87;2.03;;;9.80;99.90;;;;;;5030175;28;20046;-49
2024/02/14 05:43:34;;;;;;;4.47;2.20;;;9.90;99.90;;;;;;5030102;28;20034;-51
2024/02/14 05:46:00;;;;;;;4.57;2.20;;;9.90;99.90;;;;;;5021529;28;20029;-51
2024/02/14 05:48:26;;;;;;;5.83;2.40;;;9.90;99.90;;;;;;5027848;28;20438;-51
2024/02/14 05:50:51;;;;;;;4.73;2.30;;;10.00;99.90;;;;;;5015879;28;20160;-50
2024/02/14 05:53:17;;;;;;;6.37;2.60;;;10.00;99.90;;;;;;5029875;28;20448;-50
2024/02/14 05:55:43;;;;;;;5.07;2.47;;;9.90;99.90;;;;;;5030209;28;20183;-49
2024/02/14 05:58:09;;;;;;;6.60;3.40;;;10.00;99.90;;;;;;5030091;28;20044;-50
2024/02/14 06:00:35;;;;;;;6.07;3.00;;;10.00;99.90;;;;;;5013803;28;20029;-50
2024/02/14 06:03:02;;;;;;;4.47;2.57;;;10.00;99.90;;;;;;5030223;28;20402;-52
2024/02/14 06:05:27;;;;;;;7.00;3.50;;;10.00;99.90;;;;;;5028135;28;20033;-50
2024/02/14 06:07:53;;;;;;;5.87;3.00;;;10.00;99.90;;;;;;5024372;28;20031;-51
2024/02/14 06:10:19;;;;;;;8.83;3.07;;;9.90;99.90;;;;;;5021467;28;20420;-50
2024/02/14 06:12:44;;;;;;;7.90;3.03;;;9.90;99.90;;;;;;5025918;28;20041;-50
2024/02/14 06:15:10;;;;;;;5.77;2.73;;;9.90;99.90;;;;;;5017176;28;20029;-49
2024/02/14 06:17:36;;;;;;;5.27;2.70;;;9.90;99.90;;;;;;5021390;28;20025;-50
2024/02/14 06:20:07;;;;;;;5.80;2.70;;;9.90;99.90;;;;;;5023510;28;20029;-49
2024/02/14 06:22:33;;;;;;;4.83;2.60;;;10.00;99.90;;;;;;5027430;28;20509;-52
2024/02/14 06:25:00;;;;;;;6.27;2.80;;;9.90;99.90;;;;;;5030608;28;20034;-51
2024/02/14 06:27:25;;;;;;;5.50;2.43;;;9.90;99.90;;;;;;5029861;28;20072;-51
2024/02/14 06:29:53;;;;;;;6.37;3.30;;;9.90;99.90;;;;;;5024256;28;20064;-51
2024/02/14 06:32:18;;;;;;;7.87;2.90;;;9.90;99.90;;;;;;5031789;28;20033;-49
2024/02/14 06:34:44;;;;;;;5.93;2.73;;;9.90;99.90;;;;;;5031431;28;20121;-50
2024/02/14 06:37:09;;;;;;;4.43;2.57;;;9.90;99.90;;;;;;5031274;28;20109;-51
2024/02/14 06:39:35;;;;;;;6.40;2.30;;;9.90;99.90;;;;;;5028544;28;20457;-52
2024/02/14 06:42:01;;;;;;;4.93;2.73;;;9.90;99.90;;;;;;5026726;28;20037;-50
2024/02/14 06:44:27;;;;;;;7.70;3.13;;;9.90;99.90;;;;;;5032780;28;20029;-48
2024/02/14 06:46:52;;;;;;;6.63;2.90;;;9.90;99.90;;;;;;5033004;28;20067;-49
2024/02/14 06:49:18;;;;;;;5.50;3.10;;;9.90;99.90;;;;;;5024310;28;20136;-54
2024/02/14 06:51:44;;;;;;;5.53;3.20;;;9.90;99.90;;;;;;5031285;28;20121;-52
2024/02/14 06:54:12;;;;;;;7.93;4.03;;;9.90;99.90;;;;;;5032860;28;20065;-50
2024/02/14 06:56:38;;;;;;;6.40;3.40;;;9.90;99.90;;;;;;5032553;28;20029;-52
2024/02/14 06:59:04;;;;;;;7.23;3.10;;;9.90;99.90;;;;;;5024326;28;20393;-51
2024/02/14 07:01:30;;;;;;;6.83;2.90;;;9.90;99.90;;;;;;5030613;28;20115;-50
2024/02/14 07:03:56;;;;;;;6.83;3.50;;;10.00;99.90;;;;;;5021218;28;20026;-49
2024/02/14 07:06:22;;;;;;;8.53;3.73;;;10.00;99.90;;;;;;5021713;28;20038;-50
2024/02/14 07:08:48;;;;;;;6.17;3.30;;;10.00;99.90;;;;;;5020612;28;20140;-51
2024/02/14 07:11:18;;;;;;;7.23;3.47;;;10.00;99.90;;;;;;5028467;28;20159;-49
2024/02/14 07:13:44;;;;;;;6.30;3.63;;;10.10;99.90;;;;;;5032230;28;20041;-49
2024/02/14 07:16:09;;;;;;;8.43;3.73;;;10.10;99.90;;;;;;5025316;28;20029;-51
2024/02/14 07:18:35;;;;;;;6.30;3.20;;;10.10;99.90;;;;;;5022699;28;20396;-50
2024/02/14 07:21:05;;;;;;;5.57;2.90;;;10.10;99.90;;;;;;5032182;28;20033;-49
2024/02/14 07:23:32;;;;;;;4.27;2.67;;;10.10;99.90;;;;;;5032256;28;20044;-49
2024/02/14 07:25:57;;;;;;;4.63;2.53;;;10.10;99.90;;;;;;5032311;28;20037;-49
2024/02/14 07:28:23;;;;;;;4.73;2.60;;;10.00;99.90;;;;;;5031928;28;20030;-50
2024/02/14 07:30:49;;;;;;;6.47;2.50;;;10.00;99.90;;;;;;5023906;28;20335;-49
2024/02/14 07:33:15;;;;;;;4.00;2.20;;;10.00;99.90;;;;;;5024713;28;20030;-50
2024/02/14 07:35:40;;;;;;;8.63;2.60;;;9.90;99.90;;;;;;5021655;28;20093;-53
2024/02/14 07:38:06;;;;;;;5.77;2.60;;;9.90;99.90;;;;;;5012088;28;20051;-51
2024/02/14 07:40:31;;;;;;;5.17;2.57;;;9.90;99.90;;;;;;5022034;28;20030;-52
2024/02/14 07:42:57;;;;;;;4.57;2.30;;;9.90;99.90;;;;;;5032865;28;20029;-51
2024/02/14 07:45:23;;;;;;;4.03;2.30;;;10.00;99.90;;;;;;5032212;28;20036;-50
2024/02/14 07:47:52;;;;;;;5.03;2.43;;;10.00;99.90;;;;;;5030821;28;20068;-54
2024/02/14 07:50:18;;;;;;;3.75;2.33;;;10.00;99.90;;;;;;5031783;28;20053;-51
2024/02/14 07:52:44;;;;;;;3.77;2.30;;;10.10;99.90;;;;;;5031810;28;20061;-53
2024/02/14 07:55:12;;;;;;;6.13;2.30;;;10.10;99.90;;;;;;5016848;28;20037;-48
2024/02/14 07:57:38;;;;;;;5.07;2.43;;;10.10;99.90;;;;;;5030588;28;20045;-48
2024/02/14 08:00:08;;;;;;;4.27;2.30;;;10.10;99.90;;;;;;5031588;28;20033;-48
2024/02/14 08:02:33;;;;;;;5.80;2.47;;;10.20;99.90;;;;;;5021911;28;20033;-49
2024/02/14 08:04:59;;;;;;;4.80;2.10;;;10.20;99.90;;;;;;5020180;28;20438;-55
2024/02/14 08:07:25;;;;;;;5.60;2.57;;;10.20;99.90;;;;;;5020413;28;20091;-50
2024/02/14 08:09:51;;;;;;;5.30;1.97;;;10.30;99.90;;;;;;5019286;28;20129;-49
2024/02/14 08:12:17;;;;;;;3.67;1.97;;;10.30;99.90;;;;;;5020132;28;20098;-51
2024/02/14 08:14:42;;;;;;;6.07;2.13;;;10.30;99.90;;;;;;5023017;28;20045;-52
2024/02/14 08:17:08;;;;;;;5.53;2.30;;;10.40;99.90;;;;;;5024413;28;20025;-50
2024/02/14 08:19:34;;;;;;;3.03;1.50;;;10.30;99.90;;;;;;5020099;28;20038;-50
2024/02/14 08:22:00;;;;;;;3.97;1.57;;;10.20;99.90;;;;;;5019601;28;20479;-51
2024/02/14 08:24:27;;;;;;;3.50;1.80;;;10.30;99.90;;;;;;5021916;28;20033;-50
2024/02/14 08:26:53;;;;;;;5.97;1.90;;;10.30;99.90;;;;;;5018112;28;20022;-49
2024/02/14 08:29:19;;;;;;;2.80;1.40;;;10.30;99.90;;;;;;5021980;28;20029;-51
2024/02/14 08:31:44;;;;;;;3.73;1.63;;;10.30;99.90;;;;;;5026482;28;20521;-50
2024/02/14 08:34:10;;;;;;;3.17;1.50;;;10.40;99.90;;;;;;5025848;28;20024;-49
2024/02/14 08:36:40;;;;;;;4.73;1.90;;;10.30;99.90;;;;;;5025741;28;20034;-50
2024/02/14 08:39:12;;;;;;;4.20;1.53;;;10.30;99.90;;;;;;5022097;28;20112;-49
2024/02/14 08:41:38;;;;;;;4.67;1.80;;;10.30;99.90;;;;;;5027737;28;20040;-50
2024/02/14 08:44:07;;;;;;;3.73;1.83;;;10.30;99.90;;;;;;5028088;28;20419;-49
2024/02/14 08:46:33;;;;;;;13.73;5.75;;;10.40;99.90;;;;;;5026724;28;20030;-47
2024/02/14 08:49:02;;;;;;;8.53;3.73;;;10.50;99.90;;;;;;5027498;28;20073;-48
2024/02/14 08:51:28;;;;;;;5.97;2.20;;;10.50;99.90;;;;;;5026130;28;20036;-48
2024/02/14 08:53:56;;;;;;;5.73;1.80;;;10.60;99.90;;;;;;5022184;28;20021;-47
2024/02/14 08:56:22;;;;;;;6.18;1.92;;;10.60;99.90;;;;;;5021801;28;20096;-49
2024/02/14 08:58:49;;;;;;;3.67;1.50;;;10.60;99.90;;;;;;5021468;28;20022;-48
2024/02/14 09:01:15;;;;;;;4.00;1.60;;;10.60;99.90;;;;;;5022092;28;20108;-48
2024/02/14 09:03:47;;;;;;;3.63;1.60;;;10.60;99.90;;;;;;5021885;28;20030;-47
2024/02/14 09:06:14;;;;;;;5.00;1.73;;;10.60;99.90;;;;;;5019928;28;20018;-50
2024/02/14 09:08:41;;;;;;;3.03;1.57;;;10.60;99.90;;;;;;5023009;28;20128;-49
2024/02/14 09:11:07;;;;;;;3.50;1.50;;;10.50;99.90;;;;;;5023759;28;20075;-47
2024/02/14 09:13:33;;;;;;;4.73;1.87;;;10.50;99.90;;;;;;5023773;28;20123;-48
2024/02/14 09:15:59;;;;;;;3.27;1.70;;;10.50;99.90;;;;;;5022167;28;20474;-49
2024/02/14 09:18:25;;;;;;;4.33;1.80;;;10.50;99.90;;;;;;5021183;28;20022;-50
2024/02/14 09:20:51;;;;;;;3.93;1.70;;;10.50;99.90;;;;;;5024684;28;20076;-51
2024/02/14 09:23:22;;;;;;;2.83;1.57;;;10.50;99.90;;;;;;5026266;28;20371;-49
2024/02/14 09:25:48;;;;;;;4.80;1.60;;;10.50;99.90;;;;;;5024133;28;20394;-49
2024/02/14 09:28:15;;;;;;;3.67;1.60;;;10.50;99.90;;;;;;5010720;28;20044;-50
2024/02/14 09:30:41;;;;;;;4.40;1.73;;;10.60;99.90;;;;;;5015713;28;20030;-52
2024/02/14 09:33:07;;;;;;;5.10;1.77;;;10.60;99.90;;;;;;5016243;28;20091;-48
2024/02/14 09:35:33;;;;;;;6.23;1.90;;;10.60;99.90;;;;;;5022156;28;20095;-51
2024/02/14 09:37:59;;;;;;;3.87;1.90;;;10.70;99.90;;;;;;5023537;28;20029;-51
2024/02/14 09:40:26;;;;;;;5.33;2.00;;;10.70;99.90;;;;;;5020208;28;20045;-50
2024/02/14 09:42:53;;;;;;;3.17;1.93;;;10.70;99.90;;;;;;5020747;28;20041;-48
2024/02/14 09:45:19;;;;;;;3.43;2.07;;;10.70;99.90;;;;;;5029254;28;20121;-49
2024/02/14 09:47:46;;;;;;;4.90;1.73;;;10.80;99.90;;;;;;5021911;28;20478;-51
2024/02/14 09:50:12;;;;;;;5.50;1.90;;;10.90;99.90;;;;;;5021324;28;20530;-48
2024/02/14 09:52:38;;;;;;;3.60;1.77;;;11.00;99.90;;;;;;5020729;28;20040;-48
2024/02/14 09:55:06;;;;;;;6.13;1.77;;;11.10;99.90;;;;;;5018487;28;20536;-51
2024/02/14 09:57:32;;;;;;;4.37;1.50;;;11.20;99.90;;;;;;5010615;28;20038;-50
2024/02/14 10:00:02;;;;;;;5.03;2.37;;;11.30;99.90;;;;;;5013988;28;20033;-49
2024/02/14 10:02:30;;;;;;;9.10;2.60;;;11.40;99.90;;;;;;5013653;28;20107;-48
2024/02/14 10:04:56;;;;;;;4.00;1.73;;;11.50;99.90;;;;;;5010911;28;20061;-47
2024/02/14 10:07:21;;;;;;;4.13;2.13;;;11.50;99.90;;;;;;5017822;28;20034;-50
2024/02/14 10:09:48;;;;;;;3.93;1.90;;;11.60;99.90;;;;;;5017710;28;20026;-52
2024/02/14 10:12:14;;;;;;;5.07;1.77;;;11.50;99.90;;;;;;5012628;28;20455;-47
2024/02/14 10:14:40;;;;;;;6.83;1.77;;;11.60;99.90;;;;;;5010787;28;20034;-47
2024/02/14 10:17:07;;;;;;;5.13;1.90;;;11.60;99.90;;;;;;5021782;28;20045;-51
2024/02/14 10:19:34;;;;;;;8.65;2.10;;;11.60;99.90;;;;;;5021741;28;20037;-47
2024/02/14 10:22:02;;;;;;;8.87;2.40;;;11.60;99.90;;;;;;5013486;28;20049;-51
2024/02/14 10:24:30;;;;;;;7.63;2.55;;;11.60;99.90;;;;;;5025373;28;20038;-50
2024/02/14 10:26:57;;;;;;;3.80;2.10;;;11.60;99.90;;;;;;5029502;28;20084;-48
2024/02/14 10:29:24;;;;;;;3.47;1.60;;;11.50;99.90;;;;;;5019285;28;20084;-50
2024/02/14 10:31:50;;;;;;;4.75;1.88;;;11.50;99.90;;;;;;5026797;28;20053;-47
2024/02/14 10:34:16;;;;;;;5.97;1.73;;;11.50;99.90;;;;;;5019174;28;20026;-49
2024/02/14 10:36:43;;;;;;;4.00;1.50;;;11.60;99.90;;;;;;5019974;28;20388;-48
2024/02/14 10:39:11;;;;;;;5.80;1.60;;;11.60;99.90;;;;;;5030905;28;20403;-53
2024/02/14 10:41:37;;;;;;;4.73;1.50;;;11.70;99.90;;;;;;5028174;28;20041;-52
2024/02/14 10:44:04;;;;;;;4.90;1.30;;;11.60;99.90;;;;;;5026945;28;20398;-49
2024/02/14 10:46:33;;;;;;;6.93;1.70;;;11.70;99.90;;;;;;5013743;28;20064;-51
2024/02/14 10:49:03;;;;;;;5.40;1.60;;;11.80;99.90;;;;;;5016475;28;20200;-52
2024/02/14 10:51:32;;;;;;;3.55;1.58;;;11.90;99.90;;;;;;5032481;28;20103;-51
2024/02/14 10:53:59;;;;;;;3.35;1.73;;;12.00;99.90;;;;;;5021832;28;20061;-52
2024/02/14 10:56:28;;;;;;;6.60;1.98;;;12.00;99.90;;;;;;5013879;28;20041;-50
2024/02/14 10:58:57;;;;;;;9.35;2.42;;;12.10;99.90;;;;;;5024561;28;20453;-49
2024/02/14 11:01:24;;;;;;;5.35;2.53;;;12.20;99.90;;;;;;5026092;28;20393;-49
2024/02/14 11:03:50;;;;;;;5.93;2.00;;;12.20;99.90;;;;;;5026564;28;20025;-51
2024/02/14 11:06:17;;;;;;;4.95;1.67;;;12.40;99.90;;;;;;5015322;28;20050;-51
2024/02/14 11:09:12;;;;;;;4.38;1.77;;;12.50;99.90;;;;;;5015678;28;20244;-51
2024/02/14 11:11:38;;;;;;;3.63;1.80;;;12.50;99.90;;;;;;5016849;28;20034;-49
2024/02/14 11:14:04;;;;;;;4.93;1.75;;;12.60;99.90;;;;;;5016765;28;20191;-49
2024/02/14 11:16:33;;;;;;;3.13;1.30;;;12.60;99.90;;;;;;5029076;28;20037;-52
2024/02/14 11:19:09;;;;;;;6.15;1.77;;;12.50;99.90;;;;;;5030506;28;20486;-49
2024/02/14 11:21:45;;;;;;;2.85;1.60;;;12.50;99.90;;;;;;5023126;28;20041;-52
2024/02/14 11:24:14;;;;;;;8.55;1.70;;;12.60;99.90;;;;;;5017295;28;20021;-49
2024/02/14 11:26:54;;;;;;;8.45;2.22;;;12.70;99.90;;;;;;5030123;28;20038;-51
2024/02/14 11:29:20;;;;;;;5.57;2.22;;;12.70;99.90;;;;;;5024812;28;20052;-49
2024/02/14 11:31:47;;;;;;;5.65;2.03;;;12.70;99.90;;;;;;5022935;28;20049;-50
2024/02/14 11:34:14;;;;;;;4.32;1.88;;;12.70;99.90;;;;;;5012838;28;20364;-49
2024/02/14 11:36:44;;;;;;;4.72;1.50;;;12.70;99.90;;;;;;5012939;28;20041;-51
2024/02/14 11:39:14;;;;;;;2.42;1.13;;;12.70;99.90;;;;;;5021306;28;20037;-47
2024/02/14 11:41:42;;;;;;;4.10;1.40;;;12.70;99.90;;;;;;5021616;28;20038;-50
2024/02/14 11:44:08;;;;;;;8.40;1.70;;;12.70;99.90;;;;;;5021839;28;20097;-50
2024/02/14 11:46:35;;;;;;;2.88;1.42;;;12.70;99.90;;;;;;5014223;28;20111;-49
2024/02/14 11:49:03;;;;;;;2.60;1.20;;;12.70;99.90;;;;;;5023205;28;20022;-48
2024/02/14 11:51:30;;;;;;;3.53;1.30;;;12.80;99.90;;;;;;5014725;28;20041;-48
2024/02/14 11:53:57;;;;;;;5.47;1.02;;;12.90;99.90;;;;;;5017130;28;20447;-49
2024/02/14 11:56:23;;;;;;;2.50;0.98;;;13.00;99.90;;;;;;5021398;28;20044;-51
2024/02/14 11:58:52;;;;;;;4.13;1.50;;;13.00;99.90;;;;;;5024905;28;20393;-48
2024/02/14 12:01:18;;;;;;;3.85;1.40;;;13.10;99.90;;;;;;5026417;28;20039;-49
2024/02/14 12:03:44;;;;;;;3.47;1.60;;;13.20;99.90;;;;;;5020638;28;20026;-48
2024/02/14 12:06:11;;;;;;;5.05;2.00;;;13.20;99.90;;;;;;5016675;28;20344;-48
2024/02/14 12:08:37;;;;;;;3.22;1.20;;;13.10;99.90;;;;;;5025248;28;20441;-49
2024/02/14 12:11:03;;;;;;;3.78;1.50;;;13.10;99.90;;;;;;5029347;28;20143;-49
2024/02/14 12:13:32;;;;;;;3.78;1.20;;;13.10;99.90;;;;;;5023045;28;20025;-51
2024/02/14 12:15:59;;;;;;;2.75;1.50;;;13.00;99.90;;;;;;5029260;28;20041;-50
2024/02/14 12:18:25;;;;;;;4.53;1.80;;;12.90;99.90;;;;;;5030641;28;20474;-50
2024/02/14 12:20:51;;;;;;;3.35;1.48;;;12.70;99.90;;;;;;5016196;28;20041;-50
2024/02/14 12:23:18;;;;;;;2.97;1.05;;;12.60;99.90;;;;;;5030954;28;20047;-50
2024/02/14 12:25:46;;;;;;;4.35;1.50;;;12.50;99.90;;;;;;5029618;28;20091;-48
2024/02/14 12:28:18;;;;;;;9.60;1.55;;;12.50;99.90;;;;;;5019331;28;20522;-52
2024/02/14 12:30:49;;;;;;;3.38;1.90;;;12.50;99.90;;;;;;5019555;28;20030;-48
2024/02/14 12:33:16;;;;;;;5.28;1.70;;;12.50;99.90;;;;;;5018977;28;20030;-50
2024/02/14 12:35:47;;;;;;;8.85;3.60;;;12.60;99.90;;;;;;5012034;28;20387;-48
2024/02/14 12:38:13;;;;;;;6.63;1.90;;;12.60;99.90;;;;;;5010437;28;20523;-49
2024/02/14 12:40:46;;;;;;;4.05;1.50;;;12.60;99.90;;;;;;5012057;28;20085;-49
2024/02/14 12:43:14;;;;;;;2.92;1.40;;;12.60;99.90;;;;;;5004810;28;20515;-52
2024/02/14 12:45:40;;;;;;;3.35;1.52;;;12.60;99.90;;;;;;5012740;28;20022;-50
2024/02/14 12:48:11;;;;;;;5.25;1.40;;;12.60;99.90;;;;;;5020942;28;20053;-50
2024/02/14 12:50:37;;;;;;;3.72;1.45;;;12.50;99.90;;;;;;5021844;28;20041;-49